createdAt,value
2022-10-08T00:00:01.962Z,8.84
2022-10-08T00:02:39.543Z,8.85
2022-10-08T00:05:07.867Z,8.86
2022-10-08T00:07:35.519Z,8.89
2022-10-08T00:10:06.247Z,8.92
2022-10-08T00:12:33.929Z,8.94
2022-10-08T00:15:01.568Z,8.95
2022-10-08T00:17:29.361Z,8.98
2022-10-08T00:19:57.462Z,8.99
2022-10-08T00:22:25.838Z,9.01
2022-10-08T00:24:54.372Z,9.04
2022-10-08T00:27:24.273Z,9.06
2022-10-08T00:29:52.875Z,9.09
2022-10-08T00:32:20.792Z,9.13
2022-10-08T00:34:48.508Z,9.14
2022-10-08T00:37:16.607Z,9.16
2022-10-08T00:39:45.391Z,9.18
2022-10-08T00:42:13.826Z,9.21
2022-10-08T00:44:57.662Z,9.24
2022-10-08T00:47:42.830Z,9.27
2022-10-08T00:50:15.524Z,9.28
2022-10-08T00:52:47.506Z,9.28
2022-10-08T00:55:19.703Z,9.29
2022-10-08T00:57:47.223Z,9.29
2022-10-08T01:00:19.217Z,9.30
2022-10-08T01:02:46.962Z,9.31
2022-10-08T01:05:17.756Z,9.34
2022-10-08T01:07:52.002Z,9.35
2022-10-08T01:10:28.457Z,9.39
2022-10-08T01:13:16.968Z,9.42
2022-10-08T01:15:56.498Z,9.45
2022-10-08T01:18:33.570Z,9.47
2022-10-08T01:21:07.021Z,9.50
2022-10-08T01:24:14.451Z,9.55
2022-10-08T01:26:53.890Z,9.59
2022-10-08T01:29:27.868Z,9.59
2022-10-08T01:32:03.163Z,9.63
2022-10-08T01:34:37.520Z,9.66
2022-10-08T01:37:08.855Z,9.68
2022-10-08T01:39:39.345Z,9.72
2022-10-08T01:42:10.491Z,9.78
2022-10-08T01:44:43.825Z,9.83
2022-10-08T01:47:14.571Z,9.85
2022-10-08T01:49:48.886Z,9.88
2022-10-08T01:52:26.926Z,9.95
2022-10-08T01:55:01.082Z,9.98
2022-10-08T01:57:31.650Z,10.00
2022-10-08T02:00:04.662Z,10.02
2022-10-08T02:02:40.084Z,10.05
2022-10-08T02:05:08.068Z,10.06
2022-10-08T02:07:38.640Z,10.08
2022-10-08T02:10:10.110Z,10.09
2022-10-08T02:12:39.248Z,10.12
2022-10-08T02:15:11.252Z,10.14
2022-10-08T02:17:41.317Z,10.17
2022-10-08T02:20:19.212Z,10.19
2022-10-08T02:22:53.924Z,10.24
2022-10-08T02:25:29.439Z,10.28
2022-10-08T02:28:06.818Z,10.32
2022-10-08T02:30:41.862Z,10.35
2022-10-08T02:33:14.775Z,10.38
2022-10-08T02:35:48.621Z,10.40
2022-10-08T02:38:20.625Z,10.44
2022-10-08T02:40:50.611Z,10.49
2022-10-08T02:43:22.779Z,10.49
2022-10-08T02:45:57.781Z,10.51
2022-10-08T02:48:31.202Z,10.55
2022-10-08T02:51:03.014Z,10.58
2022-10-08T02:53:31.203Z,10.63
2022-10-08T02:56:09.289Z,10.66
2022-10-08T02:58:37.727Z,10.68
2022-10-08T03:01:10.914Z,10.71
2022-10-08T03:03:44.201Z,10.73
2022-10-08T03:06:13.574Z,10.78
2022-10-08T03:08:45.582Z,10.80
2022-10-08T03:11:13.815Z,10.84
2022-10-08T03:13:44.058Z,10.86
2022-10-08T03:16:16.925Z,10.89
2022-10-08T03:18:45.901Z,10.90
2022-10-08T03:21:15.960Z,10.92
2022-10-08T03:23:43.664Z,10.95
2022-10-08T03:26:11.246Z,10.98
2022-10-08T03:28:38.904Z,11.00
2022-10-08T03:31:07.497Z,11.01
2022-10-08T03:33:36.481Z,11.02
2022-10-08T03:36:04.312Z,11.04
2022-10-08T03:38:34.760Z,11.04
2022-10-08T03:41:02.578Z,11.06
2022-10-08T03:43:32.558Z,11.07
2022-10-08T03:46:00.490Z,11.08
2022-10-08T03:48:28.416Z,11.08
2022-10-08T03:50:58.969Z,11.10
2022-10-08T03:53:28.441Z,11.13
2022-10-08T03:55:56.066Z,11.12
2022-10-08T03:58:23.642Z,11.14
2022-10-08T04:00:58.433Z,11.15
2022-10-08T04:03:26.366Z,11.19
2022-10-08T04:05:54.301Z,11.19
2022-10-08T04:08:23.471Z,11.19
2022-10-08T04:10:51.019Z,11.22
2022-10-08T04:13:19.275Z,11.23
2022-10-08T04:15:48.336Z,11.24
2022-10-08T04:18:16.032Z,11.25
2022-10-08T04:20:44.057Z,11.28
2022-10-08T04:23:12.341Z,11.29
2022-10-08T04:25:49.926Z,11.31
2022-10-08T04:28:17.712Z,11.33
2022-10-08T04:30:55.626Z,11.33
2022-10-08T04:33:23.417Z,11.33
2022-10-08T04:35:51.210Z,11.35
2022-10-08T04:38:18.820Z,11.36
2022-10-08T04:40:47.792Z,11.39
2022-10-08T04:43:15.627Z,11.40
2022-10-08T04:45:44.754Z,11.41
2022-10-08T04:48:12.661Z,11.44
2022-10-08T04:50:40.731Z,11.44
2022-10-08T04:53:08.330Z,11.44
2022-10-08T04:55:36.196Z,11.46
2022-10-08T04:58:05.246Z,11.49
2022-10-08T05:00:32.861Z,11.48
2022-10-08T05:03:00.451Z,11.51
2022-10-08T05:05:28.040Z,11.50
2022-10-08T05:07:56.731Z,11.52
2022-10-08T05:10:24.781Z,11.52
2022-10-08T05:12:52.353Z,11.53
2022-10-08T05:15:21.240Z,11.53
2022-10-08T05:17:48.950Z,11.54
2022-10-08T05:20:16.564Z,11.54
2022-10-08T05:22:44.343Z,11.55
2022-10-08T05:25:12.127Z,11.57
2022-10-08T05:27:39.751Z,11.58
2022-10-08T05:30:08.988Z,11.57
2022-10-08T05:32:37.953Z,11.58
2022-10-08T05:35:06.214Z,11.59
2022-10-08T05:37:34.174Z,11.60
2022-10-08T05:40:01.765Z,11.60
2022-10-08T05:42:29.305Z,11.61
2022-10-08T05:44:56.872Z,11.63
2022-10-08T05:47:24.516Z,11.64
2022-10-08T05:49:53.454Z,11.65
2022-10-08T05:52:21.063Z,11.64
2022-10-08T05:54:48.678Z,11.66
2022-10-08T05:57:16.564Z,11.67
2022-10-08T05:59:44.166Z,11.69
2022-10-08T06:02:12.432Z,11.67
2022-10-08T06:04:40.103Z,11.70
2022-10-08T06:07:09.052Z,11.68
2022-10-08T06:09:36.711Z,11.69
2022-10-08T06:12:04.269Z,11.70
2022-10-08T06:14:32.073Z,11.72
2022-10-08T06:16:59.686Z,11.73
2022-10-08T06:19:27.400Z,11.74
2022-10-08T06:21:55.020Z,11.73
2022-10-08T06:24:23.970Z,11.74
2022-10-08T06:26:51.548Z,11.78
2022-10-08T06:29:19.689Z,11.80
2022-10-08T06:31:47.615Z,11.81
2022-10-08T06:34:16.027Z,11.83
2022-10-08T06:36:43.625Z,11.83
2022-10-08T06:39:13.288Z,11.85
2022-10-08T06:41:42.618Z,11.86
2022-10-08T06:44:12.577Z,11.87
2022-10-08T06:46:40.675Z,11.88
2022-10-08T06:49:08.503Z,11.89
2022-10-08T06:51:36.104Z,11.91
2022-10-08T06:54:07.785Z,11.92
2022-10-08T06:56:37.152Z,11.96
2022-10-08T06:59:07.436Z,11.98
2022-10-08T07:01:36.060Z,11.99
2022-10-08T07:04:06.663Z,12.02
2022-10-08T07:06:34.361Z,12.05
2022-10-08T07:09:02.750Z,12.08
2022-10-08T07:11:32.266Z,12.09
2022-10-08T07:14:00.494Z,12.10
2022-10-08T07:16:29.684Z,12.12
2022-10-08T07:18:59.267Z,12.14
2022-10-08T07:21:27.903Z,12.17
2022-10-08T07:23:55.685Z,12.21
2022-10-08T07:26:25.290Z,12.24
2022-10-08T07:28:55.036Z,12.28
2022-10-08T07:31:24.737Z,12.33
2022-10-08T07:33:53.703Z,12.35
2022-10-08T07:36:23.168Z,12.37
2022-10-08T07:38:54.790Z,12.38
2022-10-08T07:41:22.651Z,12.40
2022-10-08T07:43:51.959Z,12.42
2022-10-08T07:46:19.578Z,12.43
2022-10-08T07:48:47.878Z,12.45
2022-10-08T07:51:18.676Z,12.47
2022-10-08T07:53:46.788Z,12.48
2022-10-08T07:56:16.320Z,12.47
2022-10-08T07:58:45.207Z,12.48
2022-10-08T08:01:15.927Z,12.46
2022-10-08T08:03:44.127Z,12.50
2022-10-08T08:06:13.402Z,12.54
2022-10-08T08:08:44.189Z,12.63
2022-10-08T08:11:14.509Z,12.77
2022-10-08T08:13:43.108Z,12.91
2022-10-08T08:16:13.065Z,13.03
2022-10-08T08:18:42.780Z,13.20
2022-10-08T08:21:12.880Z,13.32
2022-10-08T08:23:43.816Z,13.43
2022-10-08T08:26:12.807Z,13.48
2022-10-08T08:28:41.342Z,13.48
2022-10-08T08:31:11.256Z,13.52
2022-10-08T08:33:39.279Z,13.55
2022-10-08T08:36:07.836Z,13.60
2022-10-08T08:38:35.678Z,13.65
2022-10-08T08:41:20.778Z,13.75
2022-10-08T08:43:48.927Z,13.74
2022-10-08T08:46:21.903Z,13.74
2022-10-08T08:48:54.243Z,13.76
2022-10-08T08:51:21.854Z,13.80
2022-10-08T08:53:49.573Z,13.78
2022-10-08T08:56:23.484Z,13.75
2022-10-08T08:58:58.656Z,13.76
2022-10-08T09:01:32.916Z,13.82
2022-10-08T09:04:07.201Z,13.83
2022-10-08T09:06:35.720Z,13.81
2022-10-08T09:09:11.192Z,13.83
2022-10-08T09:11:40.394Z,13.91
2022-10-08T09:14:25.248Z,14.00
2022-10-08T09:16:53.752Z,14.05
2022-10-08T09:19:22.402Z,14.11
2022-10-08T09:21:50.052Z,14.18
2022-10-08T09:24:18.838Z,14.15
2022-10-08T09:26:47.778Z,14.19
2022-10-08T09:29:33.666Z,14.25
2022-10-08T09:32:01.507Z,14.27
2022-10-08T09:34:29.109Z,14.31
2022-10-08T09:37:06.171Z,14.32
2022-10-08T09:39:35.721Z,14.38
2022-10-08T09:42:17.198Z,14.42
2022-10-08T09:44:46.426Z,14.44
2022-10-08T09:47:16.212Z,14.46
2022-10-08T09:49:44.857Z,14.51
2022-10-08T09:52:17.305Z,14.53
2022-10-08T09:54:49.453Z,14.56
2022-10-08T09:57:19.876Z,14.56
2022-10-08T09:59:53.741Z,14.53
2022-10-08T10:02:34.009Z,14.54
2022-10-08T10:05:03.749Z,14.57
2022-10-08T10:07:40.534Z,14.61
2022-10-08T10:10:17.204Z,14.57
2022-10-08T10:12:50.038Z,14.52
2022-10-08T10:15:21.913Z,14.47
2022-10-08T10:17:54.900Z,14.37
2022-10-08T10:20:28.325Z,14.30
2022-10-08T10:23:00.380Z,14.33
2022-10-08T10:25:36.592Z,14.28
2022-10-08T10:28:13.052Z,14.26
2022-10-08T10:30:52.196Z,14.24
2022-10-08T10:33:23.559Z,14.26
2022-10-08T10:35:55.255Z,14.30
2022-10-08T10:38:27.611Z,14.30
2022-10-08T10:41:07.194Z,14.32
2022-10-08T10:43:43.547Z,14.32
2022-10-08T10:46:23.063Z,14.35
2022-10-08T10:48:51.390Z,14.27
2022-10-08T10:51:43.225Z,14.25
2022-10-08T10:54:25.865Z,14.21
2022-10-08T10:57:00.159Z,14.14
2022-10-08T10:59:44.840Z,14.11
2022-10-08T11:02:24.001Z,14.05
2022-10-08T11:05:01.861Z,14.10
2022-10-08T11:07:51.508Z,14.10
2022-10-08T11:10:34.763Z,14.26
2022-10-08T11:13:17.830Z,14.34
2022-10-08T11:15:56.906Z,14.47
2022-10-08T11:18:33.225Z,14.60
2022-10-08T11:21:12.090Z,14.76
2022-10-08T11:23:52.681Z,14.57
2022-10-08T11:26:28.788Z,14.34
2022-10-08T11:29:07.129Z,14.05
2022-10-08T11:31:41.954Z,13.85
2022-10-08T11:34:20.781Z,13.72
2022-10-08T11:36:55.886Z,13.56
2022-10-08T11:39:31.546Z,13.46
2022-10-08T11:42:10.197Z,13.39
2022-10-08T11:44:38.164Z,13.34
2022-10-08T11:47:47.799Z,13.28
2022-10-08T11:50:24.634Z,13.22
2022-10-08T11:52:54.399Z,13.17
2022-10-08T11:55:27.015Z,13.14
2022-10-08T11:58:07.714Z,13.07
2022-10-08T12:00:40.741Z,13.06
2022-10-08T12:03:22.953Z,13.07
2022-10-08T12:05:53.446Z,13.07
2022-10-08T12:08:50.670Z,13.10
2022-10-08T12:11:50.038Z,13.13
2022-10-08T12:14:44.439Z,13.15
2022-10-08T12:17:13.118Z,13.20
2022-10-08T12:20:04.207Z,13.24
2022-10-08T12:23:02.625Z,13.24
2022-10-08T12:25:44.184Z,13.29
2022-10-08T12:28:48.038Z,13.32
2022-10-08T12:31:39.386Z,13.39
2022-10-08T12:34:17.803Z,13.46
2022-10-08T12:36:57.827Z,13.48
2022-10-08T12:39:36.184Z,13.50
2022-10-08T12:42:15.880Z,13.55
2022-10-08T12:45:00.818Z,13.60
2022-10-08T12:47:42.768Z,13.60
2022-10-08T12:50:30.976Z,13.61
2022-10-08T12:53:02.449Z,13.63
2022-10-08T12:55:34.406Z,13.68
2022-10-08T12:58:05.498Z,13.66
2022-10-08T13:00:35.705Z,13.69
2022-10-08T13:03:05.708Z,13.72
2022-10-08T13:05:36.192Z,13.76
2022-10-08T13:10:58.482Z,13.89
2022-10-08T13:13:44.803Z,13.87
2022-10-08T13:16:14.787Z,13.88
2022-10-08T13:18:44.747Z,13.89
2022-10-08T13:21:28.533Z,13.92
2022-10-08T13:23:56.097Z,13.93
2022-10-08T13:26:42.935Z,13.99
2022-10-08T13:29:29.361Z,14.09
2022-10-08T13:31:59.072Z,14.20
2022-10-08T13:34:30.812Z,14.32
2022-10-08T13:37:00.859Z,14.38
2022-10-08T13:39:31.196Z,14.46
2022-10-08T13:42:02.371Z,14.59
2022-10-08T13:44:30.472Z,14.67
2022-10-08T13:47:03.323Z,14.79
2022-10-08T13:49:34.105Z,14.90
2022-10-08T13:52:02.201Z,14.96
2022-10-08T13:54:32.600Z,14.99
2022-10-08T13:57:01.545Z,14.96
2022-10-08T13:59:30.912Z,14.92
2022-10-08T14:01:58.751Z,14.94
2022-10-08T14:04:26.976Z,14.97
2022-10-08T14:06:57.260Z,14.95
2022-10-08T14:09:27.524Z,14.92
2022-10-08T14:11:59.152Z,14.91
2022-10-08T14:14:28.988Z,14.95
2022-10-08T14:16:56.574Z,14.94
2022-10-08T14:19:24.162Z,14.89
2022-10-08T14:21:55.784Z,14.91
2022-10-08T14:24:23.458Z,14.86
2022-10-08T14:26:50.980Z,14.81
2022-10-08T14:29:18.820Z,14.82
2022-10-08T14:31:47.779Z,14.77
2022-10-08T14:34:15.388Z,14.75
2022-10-08T14:36:43.332Z,14.71
2022-10-08T14:39:11.104Z,14.66
2022-10-08T14:41:40.663Z,14.66
2022-10-08T14:44:08.224Z,14.57
2022-10-08T14:46:35.864Z,14.50
2022-10-08T14:49:05.245Z,14.44
2022-10-08T14:51:38.428Z,14.41
2022-10-08T14:54:07.021Z,14.38
2022-10-08T14:56:42.776Z,14.33
2022-10-08T14:59:10.483Z,14.26
2022-10-08T15:01:38.425Z,14.22
2022-10-08T15:04:08.067Z,14.15
2022-10-08T15:06:35.737Z,14.09
2022-10-08T15:09:03.319Z,14.03
2022-10-08T15:11:31.133Z,13.97
2022-10-08T15:13:59.388Z,13.93
2022-10-08T15:16:27.120Z,13.89
2022-10-08T15:18:54.760Z,13.84
2022-10-08T15:21:23.780Z,13.77
2022-10-08T15:23:51.359Z,13.71
2022-10-08T15:26:19.504Z,13.68
2022-10-08T15:28:47.305Z,13.62
2022-10-08T15:31:16.911Z,13.59
2022-10-08T15:33:46.436Z,13.54
2022-10-08T15:36:18.717Z,13.50
2022-10-08T15:38:48.588Z,13.45
2022-10-08T15:41:17.417Z,13.41
2022-10-08T15:43:45.442Z,13.38
2022-10-08T15:46:16.777Z,13.33
2022-10-08T15:48:51.928Z,13.31
2022-10-08T15:51:19.547Z,13.25
2022-10-08T15:53:48.863Z,13.22
2022-10-08T15:56:17.153Z,13.18
2022-10-08T15:58:52.157Z,13.14
2022-10-08T16:01:21.983Z,13.10
2022-10-08T16:03:52.024Z,13.08
2022-10-08T16:06:21.758Z,13.03
2022-10-08T16:08:50.778Z,12.99
2022-10-08T16:11:21.339Z,12.96
2022-10-08T16:13:51.306Z,12.91
2022-10-08T16:16:19.531Z,12.88
2022-10-08T16:18:50.939Z,12.83
2022-10-08T16:21:18.773Z,12.79
2022-10-08T16:23:46.581Z,12.73
2022-10-08T16:26:20.372Z,12.69
2022-10-08T16:28:49.899Z,12.64
2022-10-08T16:31:18.048Z,12.60
2022-10-08T16:33:46.456Z,12.56
2022-10-08T16:36:14.624Z,12.50
2022-10-08T16:38:42.353Z,12.46
2022-10-08T16:41:12.328Z,12.40
2022-10-08T16:43:41.429Z,12.37
2022-10-08T16:46:17.483Z,12.33
2022-10-08T16:48:50.873Z,12.28
2022-10-08T16:51:18.890Z,12.24
2022-10-08T16:53:48.779Z,12.20
2022-10-08T16:56:16.511Z,12.16
2022-10-08T16:58:45.737Z,12.10
2022-10-08T17:01:13.387Z,12.06
2022-10-08T17:03:41.032Z,12.00
2022-10-08T17:06:10.836Z,11.94
2022-10-08T17:08:38.640Z,11.87
2022-10-08T17:11:07.789Z,11.81
2022-10-08T17:13:35.639Z,11.74
2022-10-08T17:16:07.303Z,11.68
2022-10-08T17:18:35.853Z,11.61
2022-10-08T17:21:04.760Z,11.54
2022-10-08T17:23:37.933Z,11.47
2022-10-08T17:26:08.212Z,11.41
2022-10-08T17:28:39.021Z,11.35
2022-10-08T17:31:10.283Z,11.27
2022-10-08T17:33:38.013Z,11.21
2022-10-08T17:36:08.475Z,11.12
2022-10-08T17:38:37.302Z,11.08
2022-10-08T17:41:11.648Z,11.01
2022-10-08T17:43:39.508Z,10.95
2022-10-08T17:46:10.296Z,10.88
2022-10-08T17:48:38.245Z,10.83
2022-10-08T17:51:07.142Z,10.78
2022-10-08T17:53:34.735Z,10.72
2022-10-08T17:56:03.908Z,10.67
2022-10-08T17:58:31.815Z,10.61
2022-10-08T18:01:09.773Z,10.55
2022-10-08T18:03:38.799Z,10.49
2022-10-08T18:06:07.623Z,10.42
2022-10-08T18:08:35.373Z,10.37
2022-10-08T18:11:04.277Z,10.32
2022-10-08T18:13:32.306Z,10.27
2022-10-08T18:16:03.767Z,10.23
2022-10-08T18:18:33.957Z,10.19
2022-10-08T18:21:02.577Z,10.14
2022-10-08T18:23:31.548Z,10.08
2022-10-08T18:26:08.577Z,10.03
2022-10-08T18:28:37.008Z,9.99
2022-10-08T18:31:05.828Z,9.95
2022-10-08T18:33:35.831Z,9.90
2022-10-08T18:36:13.013Z,9.87
2022-10-08T18:38:41.616Z,9.84
2022-10-08T18:41:16.987Z,9.81
2022-10-08T18:43:45.783Z,9.75
2022-10-08T18:46:14.005Z,9.71
2022-10-08T18:48:43.597Z,9.68
2022-10-08T18:51:13.386Z,9.63
2022-10-08T18:53:42.984Z,9.59
2022-10-08T18:56:14.276Z,9.54
2022-10-08T18:58:42.435Z,9.49
2022-10-08T19:01:18.370Z,9.44
2022-10-08T19:03:48.930Z,9.40
2022-10-08T19:06:16.917Z,9.35
2022-10-08T19:08:44.773Z,9.31
2022-10-08T19:11:14.402Z,9.28
2022-10-08T19:13:42.232Z,9.23
2022-10-08T19:16:13.461Z,9.18
2022-10-08T19:18:42.865Z,9.13
2022-10-08T19:21:14.144Z,9.08
2022-10-08T19:23:41.969Z,9.04
2022-10-08T19:26:10.439Z,9.00
2022-10-08T19:28:39.273Z,8.96
2022-10-08T19:31:14.004Z,8.92
2022-10-08T19:33:41.777Z,8.88
2022-10-08T19:36:09.987Z,8.83
2022-10-08T19:38:38.933Z,8.78
2022-10-08T19:41:11.028Z,8.76
2022-10-08T19:43:38.950Z,8.72
2022-10-08T19:46:07.150Z,8.69
2022-10-08T19:48:34.787Z,8.65
2022-10-08T19:51:05.146Z,8.60
2022-10-08T19:53:32.882Z,8.58
2022-10-08T19:56:04.168Z,8.56
2022-10-08T19:58:31.940Z,8.53
2022-10-08T20:01:00.758Z,8.49
2022-10-08T20:03:28.536Z,8.45
2022-10-08T20:05:56.351Z,8.42
2022-10-08T20:08:24.048Z,8.38
2022-10-08T20:10:51.622Z,8.36
2022-10-08T20:13:20.831Z,8.33
2022-10-08T20:15:51.358Z,8.30
2022-10-08T20:18:19.376Z,8.30
2022-10-08T20:20:47.333Z,8.28
2022-10-08T20:23:15.075Z,8.26
2022-10-08T20:25:42.763Z,8.24
2022-10-08T20:28:10.571Z,8.21
2022-10-08T20:30:39.535Z,8.18
2022-10-08T20:33:07.246Z,8.14
2022-10-08T20:35:36.898Z,8.11
2022-10-08T20:38:04.519Z,8.08
2022-10-08T20:40:32.147Z,8.06
2022-10-08T20:42:59.719Z,8.02
2022-10-08T20:45:27.356Z,8.00
2022-10-08T20:47:56.272Z,7.97
2022-10-08T20:50:23.878Z,7.94
2022-10-08T20:52:51.447Z,7.90
2022-10-08T20:55:19.611Z,7.87
2022-10-08T20:57:47.160Z,7.82
2022-10-08T21:00:15.512Z,7.79
2022-10-08T21:02:43.170Z,7.74
2022-10-08T21:05:12.107Z,7.70
2022-10-08T21:07:39.670Z,7.66
2022-10-08T21:10:08.906Z,7.64
2022-10-08T21:12:36.509Z,7.62
2022-10-08T21:15:04.302Z,7.60
2022-10-08T21:17:31.988Z,7.57
2022-10-08T21:19:59.621Z,7.54
2022-10-08T21:22:28.629Z,7.50
2022-10-08T21:24:56.325Z,7.47
2022-10-08T21:27:23.947Z,7.44
2022-10-08T21:29:51.893Z,7.40
2022-10-08T21:32:19.720Z,7.38
2022-10-08T21:34:47.311Z,7.34
2022-10-08T21:37:14.936Z,7.32
2022-10-08T21:39:43.986Z,7.30
2022-10-08T21:42:12.169Z,7.27
2022-10-08T21:44:39.948Z,7.24
2022-10-08T21:47:07.514Z,7.20
2022-10-08T21:49:35.369Z,7.17
2022-10-08T21:52:03.638Z,7.14
2022-10-08T21:54:31.224Z,7.12
2022-10-08T21:57:00.223Z,7.08
2022-10-08T21:59:27.911Z,7.06
2022-10-08T22:01:57.459Z,7.04
2022-10-08T22:04:26.582Z,7.02
2022-10-08T22:06:57.653Z,7.00
2022-10-08T22:09:27.451Z,6.97
2022-10-08T22:11:56.130Z,6.95
2022-10-08T22:14:25.746Z,6.92
2022-10-08T22:16:53.854Z,6.89
2022-10-08T22:19:21.657Z,6.87
2022-10-08T22:21:49.560Z,6.84
2022-10-08T22:24:17.500Z,6.79
2022-10-08T22:26:47.644Z,6.79
2022-10-08T22:29:16.008Z,6.77
2022-10-08T22:31:45.324Z,6.75
2022-10-08T22:34:13.134Z,6.72
2022-10-08T22:36:42.383Z,6.68
2022-10-08T22:39:10.669Z,6.66
2022-10-08T22:41:38.540Z,6.62
2022-10-08T22:44:06.127Z,6.58
2022-10-08T22:46:37.315Z,6.56
2022-10-08T22:49:08.977Z,6.54
2022-10-08T22:51:37.048Z,6.52
2022-10-08T22:54:05.018Z,6.51
2022-10-08T22:56:33.193Z,6.50
2022-10-08T22:59:02.297Z,6.49
2022-10-08T23:01:31.248Z,6.46
2022-10-08T23:03:59.418Z,6.44
2022-10-08T23:06:29.996Z,6.39
2022-10-08T23:08:59.813Z,6.37
2022-10-08T23:11:28.797Z,6.34
2022-10-08T23:13:58.389Z,6.31
2022-10-08T23:16:28.063Z,6.30
2022-10-08T23:18:57.503Z,6.28
2022-10-08T23:21:25.652Z,6.25
2022-10-08T23:23:55.427Z,6.22
2022-10-08T23:26:24.121Z,6.21
2022-10-08T23:28:53.761Z,6.20
2022-10-08T23:31:23.865Z,6.18
2022-10-08T23:33:52.982Z,6.17
2022-10-08T23:36:22.338Z,6.13
2022-10-08T23:38:50.686Z,6.09
2022-10-08T23:41:20.172Z,6.07
2022-10-08T23:43:49.227Z,6.05
2022-10-08T23:46:19.311Z,6.03
2022-10-08T23:48:47.247Z,6.01
2022-10-08T23:51:16.350Z,5.99
2022-10-08T23:53:44.524Z,5.97
2022-10-08T23:56:13.230Z,5.95
2022-10-08T23:58:42.590Z,5.92
